This is the latest recevied weather packets stored in our database for station/object K2ATL. If no packets are shown the sender has not sent any weather packets the latest 10 day(s).
| Time | Temp. | Humidity | Pressure | Rain* | Wind** | Luminosity | Snow |
|---|---|---|---|---|---|---|---|
| 1787415198 | 25° C | 76% | 1103.4 hPa | 0 mm | - | 836 W/m² | - |
| 1787414894 | 23.89° C | 76% | 1103.5 hPa | 0 mm | - | 821 W/m² | - |
| 1787414589 | 23.33° C | 79% | 1103.5 hPa | 0 mm | - | 807 W/m² | - |
| 1787414288 | 25.56° C | 79% | 1103.4 hPa | 0 mm | - | 95 W/m² | - |
| 1787413983 | 24.44° C | 79% | 1103.4 hPa | 0 mm | - | 811 W/m² | - |
| 1787413683 | 23.89° C | 82% | 1103.3 hPa | 0 mm | - | 825 W/m² | - |
| 1787413383 | 23.33° C | 81% | 1103.2 hPa | 0 mm | - | 771 W/m² | - |
| 1787413079 | 24.44° C | 81% | 1103.3 hPa | 0 mm | - | 775 W/m² | - |
| 1787412776 | 23.89° C | 81% | 1103.2 hPa | 0 mm | - | 765 W/m² | - |
| 1787412474 | 23.33° C | 81% | 1103.3 hPa | 0 mm | - | 728 W/m² | - |
| 1787412171 | 22.78° C | 81% | 1103.2 hPa | 0 mm | - | 700 W/m² | - |
| 1787411879 | 23.33° C | 84% | 1103.3 hPa | 0 mm | - | 679 W/m² | - |
| 1787411563 | 22.78° C | 83% | 1103.2 hPa | 0 mm | - | 660 W/m² | - |
| 1787411258 | 22.78° C | 84% | 1103.4 hPa | 0 mm | - | 643 W/m² | - |
| 1787410955 | 22.78° C | 83% | 1103.4 hPa | 0 mm | - | 629 W/m² | - |
| 1787410650 | 21.67° C | 86% | 1103.3 hPa | 0 mm | - | 608 W/m² | - |
| 1787410346 | 21.11° C | 88% | 1103.3 hPa | 0 mm | - | 596 W/m² | - |
| 1787410041 | 20.56° C | 89% | 1103.3 hPa | 0 mm | - | 580 W/m² | - |
| 1787409737 | 21.67° C | 90% | 1103.3 hPa | 0 mm | - | 243 W/m² | - |
| 1787409432 | 22.78° C | 91% | 1103.3 hPa | 0 mm | - | 71 W/m² | - |
| 1787409128 | 22.78° C | 92% | 1103.3 hPa | 0 mm | - | 58 W/m² | - |
| 1787408824 | 22.78° C | 91% | 1103.2 hPa | 0 mm | - | 53 W/m² | - |
| 1787408519 | 22.22° C | 92% | 1103.5 hPa | 0 mm | - | 56 W/m² | - |
| 1787408214 | 22.22° C | 92% | 1103.4 hPa | 0 mm | - | 52 W/m² | - |
| 1787407910 | 21.11° C | 91% | 1103.4 hPa | 0 mm | - | 212 W/m² | - |
* Rain latest hour (hover to see other rain measurements)
** Current wind speed in m/s (hover to see current wind gust speed)